Terminal Aerodrome Forecast
Issued by NWS

Home | Current Version | Previous Version | Text Only | Print | Product List | Glossary On
Versions: 1 2 3 4 5 6 7 8 9 10 11 12
000
FTUS45 KABQ 301142
TAFGUP
TAF
KGUP 301142Z 3012/0112 VRB05KT P6SM FEW150
     FM301900 26007KT P6SM SCT100
     FM010200 VRB03KT P6SM FEW110=

USA.gov is the U.S. government's official web portal to all federal, state and local government web resources and services.